createdAt,value
2022-12-03T00:02:19.337Z,2.60
2022-12-03T00:04:46.209Z,2.60
2022-12-03T00:07:13.095Z,2.50
2022-12-03T00:09:39.931Z,2.50
2022-12-03T00:12:06.966Z,2.60
2022-12-03T00:14:33.839Z,2.60
2022-12-03T00:17:00.688Z,2.60
2022-12-03T00:19:27.635Z,2.60
2022-12-03T00:21:54.441Z,2.70
2022-12-03T00:24:21.311Z,2.60
2022-12-03T00:26:48.288Z,2.70
2022-12-03T00:29:15.131Z,2.70
2022-12-03T00:31:43.356Z,2.80
2022-12-03T00:34:10.247Z,2.70
2022-12-03T00:36:37.093Z,2.70
2022-12-03T00:39:04.137Z,2.70
2022-12-03T00:41:30.955Z,2.80
2022-12-03T00:43:57.964Z,2.70
2022-12-03T00:46:25.224Z,2.70
2022-12-03T00:48:52.195Z,2.60
2022-12-03T00:51:19.384Z,2.70
2022-12-03T00:53:46.240Z,2.70
2022-12-03T00:56:13.058Z,2.70
2022-12-03T00:58:39.960Z,2.70
2022-12-03T01:01:06.752Z,2.70
2022-12-03T01:03:33.689Z,2.80
2022-12-03T01:06:00.656Z,2.70
2022-12-03T01:08:27.599Z,2.60
2022-12-03T01:10:54.472Z,2.60
2022-12-03T01:13:21.411Z,2.60
2022-12-03T01:15:48.318Z,2.60
2022-12-03T01:18:15.225Z,2.70
2022-12-03T01:20:42.141Z,2.70
2022-12-03T01:23:09.034Z,2.60
2022-12-03T01:25:35.945Z,2.70
2022-12-03T01:28:02.805Z,2.70
2022-12-03T01:30:29.672Z,2.60
2022-12-03T01:32:56.628Z,2.60
2022-12-03T01:35:23.423Z,2.60
2022-12-03T01:37:50.251Z,2.70
2022-12-03T01:40:20.108Z,2.70
2022-12-03T01:42:47.052Z,2.60
2022-12-03T01:45:20.838Z,2.60
2022-12-03T01:47:47.897Z,2.60
2022-12-03T01:50:29.227Z,2.60
2022-12-03T01:52:58.386Z,2.70
2022-12-03T01:55:25.980Z,2.60
2022-12-03T01:57:54.387Z,2.70
2022-12-03T02:00:27.013Z,2.70
2022-12-03T02:02:55.976Z,2.70
2022-12-03T02:05:24.539Z,2.80
2022-12-03T02:07:52.959Z,2.70
2022-12-03T02:10:23.203Z,2.70
2022-12-03T02:12:52.341Z,2.70
2022-12-03T02:15:19.335Z,2.60
2022-12-03T02:17:46.301Z,2.60
2022-12-03T02:20:14.640Z,2.70
2022-12-03T02:22:59.508Z,2.70
2022-12-03T02:25:28.176Z,2.70
2022-12-03T02:27:55.429Z,2.70
2022-12-03T02:30:23.957Z,2.70
2022-12-03T02:32:51.788Z,2.60
2022-12-03T02:35:25.953Z,2.60
2022-12-03T02:37:54.810Z,2.60
2022-12-03T02:40:23.176Z,2.60
2022-12-03T02:42:50.874Z,2.70
2022-12-03T02:45:25.609Z,2.70
2022-12-03T02:48:00.976Z,2.60
2022-12-03T02:50:39.938Z,2.60
2022-12-03T02:53:09.287Z,2.70
2022-12-03T02:55:37.570Z,2.70
2022-12-03T02:58:04.972Z,2.70
2022-12-03T03:00:32.808Z,2.70
2022-12-03T03:03:00.408Z,2.60
2022-12-03T03:05:27.265Z,2.60
2022-12-03T03:07:54.410Z,2.70
2022-12-03T03:10:22.588Z,2.70
2022-12-03T03:12:49.746Z,2.60
2022-12-03T03:15:16.637Z,2.70
2022-12-03T03:17:43.592Z,2.70
2022-12-03T03:20:10.825Z,2.60
2022-12-03T03:22:39.135Z,2.60
2022-12-03T03:25:07.398Z,2.70
2022-12-03T03:27:34.512Z,2.70
2022-12-03T03:30:01.402Z,2.60
2022-12-03T03:32:28.831Z,2.60
2022-12-03T03:34:56.242Z,2.60
2022-12-03T03:37:23.816Z,2.50
2022-12-03T03:39:50.810Z,2.50
2022-12-03T03:42:17.737Z,2.60
2022-12-03T03:44:44.757Z,2.50
2022-12-03T03:47:12.152Z,2.50
2022-12-03T03:49:39.069Z,2.50
2022-12-03T03:52:06.032Z,2.60
2022-12-03T03:54:32.948Z,2.60
2022-12-03T03:56:59.841Z,2.60
2022-12-03T03:59:26.752Z,2.60
2022-12-03T04:01:53.594Z,2.70
2022-12-03T04:04:21.401Z,2.60
2022-12-03T04:06:48.481Z,2.60
2022-12-03T04:09:15.513Z,2.60
2022-12-03T04:12:01.121Z,2.60
2022-12-03T04:14:27.988Z,2.60
2022-12-03T04:16:54.994Z,2.60
2022-12-03T04:19:21.853Z,2.60
2022-12-03T04:22:06.981Z,2.60
2022-12-03T04:24:33.820Z,2.50
2022-12-03T04:27:19.074Z,2.50
2022-12-03T04:29:45.895Z,2.50
2022-12-03T04:32:31.346Z,2.50
2022-12-03T04:35:16.736Z,2.70
2022-12-03T04:37:43.685Z,2.60
2022-12-03T04:40:30.628Z,2.50
2022-12-03T04:42:57.520Z,2.50
2022-12-03T04:45:24.342Z,2.40
2022-12-03T04:47:51.605Z,2.40
2022-12-03T04:50:18.458Z,2.40
2022-12-03T04:52:45.306Z,2.40
2022-12-03T04:55:12.182Z,2.40
2022-12-03T04:57:38.974Z,2.40
2022-12-03T05:00:06.105Z,2.60
2022-12-03T05:02:33.080Z,2.50
2022-12-03T05:04:59.934Z,2.50
2022-12-03T05:07:26.912Z,2.70
2022-12-03T05:09:53.870Z,2.60
2022-12-03T05:12:20.665Z,2.60
2022-12-03T05:14:47.533Z,2.50
2022-12-03T05:17:14.428Z,2.60
2022-12-03T05:19:59.840Z,2.50
2022-12-03T05:22:26.790Z,2.50
2022-12-03T05:24:53.866Z,2.50
2022-12-03T05:27:23.931Z,2.40
2022-12-03T05:29:51.681Z,2.50
2022-12-03T05:32:18.874Z,2.50
2022-12-03T05:34:45.805Z,2.50
2022-12-03T05:37:12.645Z,2.50
2022-12-03T05:39:39.528Z,2.60
2022-12-03T05:42:24.890Z,2.50
2022-12-03T05:44:51.964Z,2.50
2022-12-03T05:47:18.961Z,2.60
2022-12-03T05:49:45.914Z,2.50
2022-12-03T05:52:12.816Z,2.50
2022-12-03T05:54:39.740Z,2.60
2022-12-03T05:57:07.048Z,2.60
2022-12-03T05:59:34.453Z,2.60
2022-12-03T06:02:01.380Z,2.60
2022-12-03T06:04:28.244Z,2.60
2022-12-03T06:06:55.582Z,2.80
2022-12-03T06:09:22.408Z,2.70
2022-12-03T06:11:53.581Z,2.60
2022-12-03T06:14:20.831Z,2.60
2022-12-03T06:16:47.698Z,2.50
2022-12-03T06:19:14.551Z,2.60
2022-12-03T06:21:41.948Z,2.50
2022-12-03T06:24:08.882Z,2.50
2022-12-03T06:26:35.762Z,2.50
2022-12-03T06:29:02.655Z,2.50
2022-12-03T06:31:29.571Z,2.50
2022-12-03T06:33:56.421Z,2.70
2022-12-03T06:36:23.645Z,2.60
2022-12-03T06:38:50.472Z,2.60
2022-12-03T06:41:17.370Z,2.60
2022-12-03T06:43:44.259Z,2.70
2022-12-03T06:46:11.145Z,2.70
2022-12-03T06:48:38.116Z,2.80
2022-12-03T06:51:05.869Z,2.70
2022-12-03T06:53:32.802Z,2.70
2022-12-03T06:55:59.673Z,2.70
2022-12-03T06:58:26.548Z,2.70
2022-12-03T07:00:53.531Z,2.60
2022-12-03T07:03:21.296Z,2.70
2022-12-03T07:05:48.223Z,2.70
2022-12-03T07:08:15.172Z,2.70
2022-12-03T07:10:42.253Z,2.70
2022-12-03T07:13:09.136Z,2.70
2022-12-03T07:15:35.996Z,2.70
2022-12-03T07:18:02.894Z,2.70
2022-12-03T07:20:29.716Z,2.80
2022-12-03T07:22:57.257Z,2.60
2022-12-03T07:25:24.169Z,2.70
2022-12-03T07:27:51.080Z,2.70
2022-12-03T07:30:18.006Z,2.70
2022-12-03T07:32:44.907Z,2.80
2022-12-03T07:35:11.718Z,2.80
2022-12-03T07:37:38.852Z,2.80
2022-12-03T07:40:06.244Z,2.80
2022-12-03T07:42:33.038Z,3.00
2022-12-03T07:44:59.932Z,3.00
2022-12-03T07:47:26.711Z,3.10
2022-12-03T07:49:53.591Z,3.00
2022-12-03T07:52:21.377Z,3.00
2022-12-03T07:54:48.229Z,2.90
2022-12-03T07:57:15.061Z,2.90
2022-12-03T07:59:41.894Z,3.00
2022-12-03T08:02:09.502Z,3.10
2022-12-03T08:04:36.452Z,3.10
2022-12-03T08:07:03.296Z,3.10
2022-12-03T08:09:31.408Z,3.10
2022-12-03T08:12:00.695Z,3.10
2022-12-03T08:14:27.854Z,3.10
2022-12-03T08:16:54.781Z,3.20
2022-12-03T08:19:22.577Z,3.30
2022-12-03T08:21:49.556Z,3.40
2022-12-03T08:24:18.223Z,3.40
2022-12-03T08:26:45.937Z,3.40
2022-12-03T08:29:14.135Z,3.30
2022-12-03T08:31:41.860Z,3.30
2022-12-03T08:34:19.281Z,3.30
2022-12-03T08:36:47.254Z,3.30
2022-12-03T08:39:17.144Z,3.20
2022-12-03T08:42:03.033Z,3.20
2022-12-03T08:44:37.544Z,3.40
2022-12-03T08:47:04.392Z,3.30
2022-12-03T08:49:31.369Z,3.40
2022-12-03T08:52:00.527Z,3.30
2022-12-03T08:54:28.211Z,3.40
2022-12-03T08:56:55.035Z,3.60
2022-12-03T08:59:22.119Z,3.50
2022-12-03T09:01:49.148Z,3.60
2022-12-03T09:04:22.050Z,3.50
2022-12-03T09:06:49.469Z,3.60
2022-12-03T09:09:17.494Z,3.60
2022-12-03T09:11:44.440Z,3.60
2022-12-03T09:14:16.714Z,3.70
2022-12-03T09:16:45.529Z,3.60
2022-12-03T09:19:12.492Z,3.60
2022-12-03T09:21:39.300Z,3.70
2022-12-03T09:24:06.324Z,3.70
2022-12-03T09:26:33.129Z,3.80
2022-12-03T09:29:00.072Z,3.90
2022-12-03T09:31:27.132Z,3.90
2022-12-03T09:33:54.048Z,3.90
2022-12-03T09:36:20.902Z,3.90
2022-12-03T09:38:48.376Z,4.00
2022-12-03T09:41:15.612Z,4.00
2022-12-03T09:44:03.235Z,3.90
2022-12-03T09:46:30.196Z,4.00
2022-12-03T09:48:57.508Z,3.90
2022-12-03T09:51:27.985Z,4.00
2022-12-03T09:53:54.862Z,4.10
2022-12-03T09:56:23.173Z,4.20
2022-12-03T09:58:50.237Z,4.20
2022-12-03T10:01:17.830Z,4.20
2022-12-03T10:03:50.116Z,4.10
2022-12-03T10:06:21.424Z,4.00
2022-12-03T10:08:49.420Z,4.10
2022-12-03T10:11:17.399Z,4.00
2022-12-03T10:13:44.480Z,4.10
2022-12-03T10:16:12.628Z,4.20
2022-12-03T10:18:41.905Z,4.20
2022-12-03T10:21:19.588Z,4.30
2022-12-03T10:23:55.116Z,4.30
2022-12-03T10:26:35.903Z,4.40
2022-12-03T10:29:02.783Z,4.50
2022-12-03T10:31:35.688Z,4.50
2022-12-03T10:34:02.767Z,4.50
2022-12-03T10:36:29.665Z,4.50
2022-12-03T10:39:13.653Z,4.50
2022-12-03T10:41:41.359Z,4.60
2022-12-03T10:44:12.994Z,4.90
2022-12-03T10:46:39.930Z,5.00
2022-12-03T10:49:19.494Z,5.00
2022-12-03T10:51:47.698Z,5.20
2022-12-03T10:54:17.135Z,5.20
2022-12-03T10:56:44.351Z,5.30
2022-12-03T10:59:22.326Z,5.50
2022-12-03T11:01:49.860Z,5.40
2022-12-03T11:04:22.049Z,5.40
2022-12-03T11:06:49.440Z,5.50
2022-12-03T11:09:21.158Z,5.50
2022-12-03T11:11:48.424Z,5.50
2022-12-03T11:14:35.204Z,5.50
2022-12-03T11:17:02.120Z,5.50
2022-12-03T11:19:45.773Z,5.40
2022-12-03T11:22:16.901Z,5.40
2022-12-03T11:24:44.320Z,5.40
2022-12-03T11:27:11.172Z,5.30
2022-12-03T11:29:48.198Z,5.20
2022-12-03T11:32:34.264Z,5.20
2022-12-03T11:35:01.123Z,5.00
2022-12-03T11:37:28.446Z,4.90
2022-12-03T11:39:55.933Z,4.80
2022-12-03T11:42:25.994Z,4.90
2022-12-03T11:45:05.254Z,4.80
2022-12-03T11:47:34.984Z,5.00
2022-12-03T11:50:02.256Z,4.80
2022-12-03T11:52:40.127Z,4.70
2022-12-03T11:55:17.751Z,4.60
2022-12-03T11:57:45.378Z,4.60
2022-12-03T12:00:20.548Z,4.40
2022-12-03T12:02:48.187Z,4.40
2022-12-03T12:05:20.658Z,4.40
2022-12-03T12:07:48.390Z,4.40
2022-12-03T12:10:35.270Z,4.40
2022-12-03T12:13:02.164Z,4.40
2022-12-03T12:15:32.991Z,4.50
2022-12-03T12:18:18.315Z,4.40
2022-12-03T12:20:45.189Z,4.40
2022-12-03T12:23:22.216Z,4.40
2022-12-03T12:25:54.101Z,4.40
2022-12-03T12:28:21.456Z,4.40
2022-12-03T12:30:48.458Z,4.40
2022-12-03T12:33:24.589Z,4.60
2022-12-03T12:35:51.613Z,4.70
2022-12-03T12:38:19.872Z,4.60
2022-12-03T12:40:49.245Z,4.80
2022-12-03T12:43:21.922Z,4.70
2022-12-03T12:45:51.441Z,4.80
2022-12-03T12:48:18.347Z,4.80
2022-12-03T12:50:47.057Z,4.80
2022-12-03T12:53:21.521Z,4.80
2022-12-03T12:55:49.100Z,4.60
2022-12-03T12:58:17.973Z,4.60
2022-12-03T13:00:52.947Z,4.70
2022-12-03T13:03:21.906Z,4.70
2022-12-03T13:05:49.696Z,4.60
2022-12-03T13:08:16.530Z,4.60
2022-12-03T13:10:43.484Z,4.70
2022-12-03T13:13:19.537Z,4.70
2022-12-03T13:15:52.357Z,4.70
2022-12-03T13:18:26.223Z,4.60
2022-12-03T13:20:53.779Z,4.50
2022-12-03T13:23:23.651Z,4.50
2022-12-03T13:26:01.735Z,4.40
2022-12-03T13:28:34.514Z,4.40
2022-12-03T13:31:15.187Z,4.40
2022-12-03T13:33:42.507Z,4.30
2022-12-03T13:36:12.840Z,4.30
2022-12-03T13:38:39.744Z,4.40
2022-12-03T13:41:29.292Z,4.30
2022-12-03T13:43:56.187Z,4.30
2022-12-03T13:46:23.081Z,4.30
2022-12-03T13:48:50.062Z,4.20
2022-12-03T13:51:23.900Z,4.10
2022-12-03T13:53:50.937Z,4.10
2022-12-03T13:56:36.424Z,4.10
2022-12-03T13:59:04.438Z,4.10
2022-12-03T14:01:31.399Z,4.10
2022-12-03T14:03:58.367Z,4.10
2022-12-03T14:06:25.320Z,4.10
2022-12-03T14:08:52.306Z,4.10
2022-12-03T14:11:37.582Z,4.00
2022-12-03T14:14:04.540Z,4.00
2022-12-03T14:16:31.498Z,4.00
2022-12-03T14:18:58.388Z,4.10
2022-12-03T14:21:25.265Z,4.00
2022-12-03T14:23:52.066Z,3.90
2022-12-03T14:26:18.998Z,3.90
2022-12-03T14:28:45.848Z,4.00
2022-12-03T14:31:12.774Z,3.90
2022-12-03T14:33:39.668Z,3.90
2022-12-03T14:36:06.733Z,3.90
2022-12-03T14:38:33.529Z,3.90
2022-12-03T14:41:00.369Z,3.80
2022-12-03T14:43:27.232Z,3.80
2022-12-03T14:45:54.093Z,3.90
2022-12-03T14:48:21.061Z,3.90
2022-12-03T14:50:47.963Z,3.90
2022-12-03T14:53:14.955Z,3.80
2022-12-03T14:55:41.884Z,3.80
2022-12-03T14:58:08.718Z,3.80
2022-12-03T15:00:35.596Z,3.70
2022-12-03T15:03:02.576Z,3.60
2022-12-03T15:05:29.518Z,3.60
2022-12-03T15:07:56.520Z,3.70
2022-12-03T15:10:23.548Z,3.60
2022-12-03T15:12:50.407Z,3.60
2022-12-03T15:15:17.291Z,3.60
2022-12-03T15:17:45.773Z,3.50
2022-12-03T15:20:13.015Z,3.50
2022-12-03T15:22:39.979Z,3.60
2022-12-03T15:25:07.725Z,3.60
2022-12-03T15:27:34.608Z,3.60
2022-12-03T15:30:01.666Z,3.70
2022-12-03T15:32:28.535Z,3.50
2022-12-03T15:34:55.643Z,3.50
2022-12-03T15:37:22.541Z,3.50
2022-12-03T15:39:49.475Z,3.50
2022-12-03T15:42:16.362Z,3.60
2022-12-03T15:44:45.931Z,3.50
2022-12-03T15:47:12.850Z,3.50
2022-12-03T15:49:39.652Z,3.40
2022-12-03T15:52:07.991Z,3.50
2022-12-03T15:54:34.842Z,3.40
2022-12-03T15:57:01.701Z,3.50
2022-12-03T15:59:28.551Z,3.50
2022-12-03T16:01:55.479Z,3.40
2022-12-03T16:04:22.501Z,3.40
2022-12-03T16:06:49.306Z,3.40
2022-12-03T16:09:16.187Z,3.40
2022-12-03T16:11:44.756Z,3.40
2022-12-03T16:14:11.622Z,3.40
2022-12-03T16:16:38.625Z,3.40
2022-12-03T16:19:05.462Z,3.30
2022-12-03T16:21:34.669Z,3.30
2022-12-03T16:24:01.591Z,3.30
2022-12-03T16:26:28.505Z,3.30
2022-12-03T16:28:55.428Z,3.30
2022-12-03T16:31:22.445Z,3.30
2022-12-03T16:33:49.413Z,3.30
2022-12-03T16:36:16.262Z,3.40
2022-12-03T16:38:43.107Z,3.30
2022-12-03T16:41:09.985Z,3.30
2022-12-03T16:43:38.825Z,3.30
2022-12-03T16:46:15.088Z,3.30
2022-12-03T16:48:42.008Z,3.30
2022-12-03T16:51:09.752Z,3.20
2022-12-03T16:53:36.581Z,3.20
2022-12-03T16:56:03.571Z,3.20
2022-12-03T16:58:30.578Z,3.20
2022-12-03T17:00:57.392Z,3.30
2022-12-03T17:03:26.704Z,3.30
2022-12-03T17:05:57.491Z,3.20
2022-12-03T17:08:24.357Z,3.30
2022-12-03T17:10:51.259Z,3.20
2022-12-03T17:13:18.201Z,3.20
2022-12-03T17:15:45.211Z,3.20
2022-12-03T17:18:12.057Z,3.10
2022-12-03T17:20:39.089Z,3.20
2022-12-03T17:23:05.995Z,3.30
2022-12-03T17:25:32.863Z,3.20
2022-12-03T17:27:59.965Z,3.20
2022-12-03T17:30:26.836Z,3.10
2022-12-03T17:32:53.867Z,3.10
2022-12-03T17:35:20.940Z,3.10
2022-12-03T17:37:47.831Z,3.10
2022-12-03T17:40:15.126Z,3.10
2022-12-03T17:42:42.016Z,3.20
2022-12-03T17:45:09.136Z,3.20
2022-12-03T17:47:36.040Z,3.10
2022-12-03T17:50:02.919Z,3.10
2022-12-03T17:52:29.786Z,3.00
2022-12-03T17:55:16.326Z,3.10
2022-12-03T17:57:43.592Z,3.10
2022-12-03T18:00:10.916Z,3.00
2022-12-03T18:02:41.791Z,3.00
2022-12-03T18:05:09.257Z,3.00
2022-12-03T18:07:36.195Z,3.10
2022-12-03T18:10:03.086Z,3.10
2022-12-03T18:12:30.059Z,3.00
2022-12-03T18:14:57.000Z,3.00
2022-12-03T18:17:23.978Z,2.90
2022-12-03T18:19:50.801Z,2.90
2022-12-03T18:22:17.877Z,2.80
2022-12-03T18:24:47.614Z,2.90
2022-12-03T18:27:17.279Z,3.00
2022-12-03T18:29:44.122Z,2.80
2022-12-03T18:32:27.251Z,2.70
2022-12-03T18:34:55.638Z,2.80
2022-12-03T18:37:23.296Z,2.80
2022-12-03T18:39:50.253Z,2.80
2022-12-03T18:42:18.010Z,2.80
2022-12-03T18:44:49.679Z,2.80
2022-12-03T18:47:18.860Z,2.80
2022-12-03T18:49:45.980Z,2.80
2022-12-03T18:52:16.389Z,2.80
2022-12-03T18:54:43.549Z,2.80
2022-12-03T18:57:10.493Z,2.80
2022-12-03T18:59:37.421Z,2.80
2022-12-03T19:02:05.041Z,2.80
2022-12-03T19:04:31.953Z,2.80
2022-12-03T19:06:58.952Z,2.80
2022-12-03T19:09:25.933Z,2.80
2022-12-03T19:11:52.812Z,2.80
2022-12-03T19:14:19.675Z,2.90
2022-12-03T19:16:46.724Z,2.80
2022-12-03T19:19:13.644Z,2.80
2022-12-03T19:21:40.575Z,2.90
2022-12-03T19:24:24.719Z,2.90
2022-12-03T19:26:54.759Z,2.90
2022-12-03T19:29:24.759Z,2.90
2022-12-03T19:31:51.996Z,2.90
2022-12-03T19:34:19.255Z,2.80
2022-12-03T19:36:46.315Z,2.70
2022-12-03T19:39:13.263Z,2.70
2022-12-03T19:41:41.903Z,2.80
2022-12-03T19:44:11.672Z,2.80
2022-12-03T19:46:38.619Z,2.80
2022-12-03T19:49:06.349Z,2.80
2022-12-03T19:51:35.060Z,2.80
2022-12-03T19:54:03.206Z,2.80
2022-12-03T19:56:32.774Z,2.80
2022-12-03T19:58:59.681Z,2.80
2022-12-03T20:01:30.857Z,2.70
2022-12-03T20:03:59.130Z,2.80
2022-12-03T20:06:27.855Z,2.80
2022-12-03T20:09:02.544Z,2.90
2022-12-03T20:11:31.042Z,2.70
2022-12-03T20:13:59.558Z,2.70
2022-12-03T20:16:26.601Z,2.60
2022-12-03T20:18:56.696Z,2.50
2022-12-03T20:21:23.668Z,2.60
2022-12-03T20:23:50.742Z,2.70
2022-12-03T20:26:18.687Z,2.70
2022-12-03T20:28:45.964Z,2.60
2022-12-03T20:31:14.147Z,2.60
2022-12-03T20:33:42.285Z,2.60
2022-12-03T20:36:09.947Z,2.60
2022-12-03T20:38:37.234Z,2.60
2022-12-03T20:41:05.511Z,2.50
2022-12-03T20:43:32.627Z,2.50
2022-12-03T20:46:12.548Z,2.50
2022-12-03T20:48:39.673Z,2.60
2022-12-03T20:51:07.675Z,2.60
2022-12-03T20:53:35.315Z,2.60
2022-12-03T20:56:02.841Z,2.60
2022-12-03T20:58:30.441Z,2.60
2022-12-03T21:01:11.114Z,2.50
2022-12-03T21:03:40.901Z,2.40
2022-12-03T21:06:07.904Z,2.50
2022-12-03T21:08:41.504Z,2.50
2022-12-03T21:11:14.479Z,2.50
2022-12-03T21:13:44.167Z,2.40
2022-12-03T21:16:16.065Z,2.30
2022-12-03T21:18:43.193Z,2.40
2022-12-03T21:21:13.905Z,2.30
2022-12-03T21:23:41.165Z,2.30
2022-12-03T21:26:12.295Z,2.30
2022-12-03T21:28:40.139Z,2.30
2022-12-03T21:31:09.146Z,2.30
2022-12-03T21:33:36.267Z,2.30
2022-12-03T21:36:03.429Z,2.30
2022-12-03T21:38:30.737Z,2.20
2022-12-03T21:40:58.019Z,2.20
2022-12-03T21:43:25.103Z,2.20
2022-12-03T21:45:52.147Z,2.20
2022-12-03T21:48:19.148Z,2.30
2022-12-03T21:50:46.267Z,2.30
2022-12-03T21:53:13.180Z,2.30
2022-12-03T21:55:43.271Z,2.20
2022-12-03T21:58:10.230Z,2.30
2022-12-03T22:00:37.204Z,2.30
2022-12-03T22:03:04.120Z,2.40
2022-12-03T22:05:31.006Z,2.40
2022-12-03T22:07:57.951Z,2.30
2022-12-03T22:10:24.829Z,2.30
2022-12-03T22:12:51.735Z,2.30
2022-12-03T22:15:19.702Z,2.30
2022-12-03T22:17:47.057Z,2.30
2022-12-03T22:20:14.310Z,2.20
2022-12-03T22:22:41.214Z,2.30
2022-12-03T22:25:08.574Z,2.20
2022-12-03T22:27:35.516Z,2.30
2022-12-03T22:30:02.610Z,2.40
2022-12-03T22:32:29.430Z,2.30
2022-12-03T22:34:56.269Z,2.30
2022-12-03T22:37:23.552Z,2.20
2022-12-03T22:39:50.367Z,2.20
2022-12-03T22:42:17.277Z,2.30
2022-12-03T22:44:44.077Z,2.20
2022-12-03T22:47:11.109Z,2.20
2022-12-03T22:49:38.136Z,2.30
2022-12-03T22:52:05.020Z,2.30
2022-12-03T22:54:31.871Z,2.20
2022-12-03T22:56:58.748Z,2.40
2022-12-03T22:59:25.651Z,2.30
2022-12-03T23:01:52.485Z,2.30
2022-12-03T23:04:19.588Z,2.20
2022-12-03T23:06:46.534Z,2.20
2022-12-03T23:09:13.463Z,2.30
2022-12-03T23:11:40.383Z,2.30
2022-12-03T23:14:07.296Z,2.20
2022-12-03T23:16:34.321Z,2.20
2022-12-03T23:19:01.872Z,2.20
2022-12-03T23:21:31.183Z,2.20
2022-12-03T23:23:58.771Z,2.20
2022-12-03T23:26:25.633Z,2.10
2022-12-03T23:28:52.661Z,2.20
2022-12-03T23:31:19.578Z,2.20
2022-12-03T23:33:47.080Z,2.10
2022-12-03T23:36:13.953Z,2.10
2022-12-03T23:38:41.221Z,2.20
2022-12-03T23:41:09.192Z,2.20
2022-12-03T23:43:36.072Z,2.20
2022-12-03T23:46:04.557Z,2.20
2022-12-03T23:48:31.761Z,2.20
2022-12-03T23:50:58.751Z,2.10
2022-12-03T23:53:25.644Z,2.10
2022-12-03T23:55:52.485Z,2.10
2022-12-03T23:58:19.327Z,2.10
